sensor_id;sensor_type;location;lat;lon;timestamp;pressure;altitude;pressure_sealevel;temperature;humidity
64078;BME280;51039;49.696;10.808;2022-12-17T00:01:42;98628.28;;;-7.77;81.62
64078;BME280;51039;49.696;10.808;2022-12-17T00:04:26;98640.47;;;-7.81;81.57
64078;BME280;51039;49.696;10.808;2022-12-17T00:07:10;98642.34;;;-7.84;81.88
64078;BME280;51039;49.696;10.808;2022-12-17T00:09:54;98646.00;;;-7.88;82.17
64078;BME280;51039;49.696;10.808;2022-12-17T00:12:38;98648.38;;;-8.01;82.17
64078;BME280;51039;49.696;10.808;2022-12-17T00:15:22;98646.63;;;-8.01;82.59
64078;BME280;51039;49.696;10.808;2022-12-17T00:18:06;98650.13;;;-8.02;82.72
64078;BME280;51039;49.696;10.808;2022-12-17T00:20:54;98651.56;;;-8.14;82.25
64078;BME280;51039;49.696;10.808;2022-12-17T00:23:40;98657.38;;;-8.27;82.77
64078;BME280;51039;49.696;10.808;2022-12-17T00:26:25;98662.00;;;-8.34;82.74
64078;BME280;51039;49.696;10.808;2022-12-17T00:29:08;98662.25;;;-8.39;82.69
64078;BME280;51039;49.696;10.808;2022-12-17T00:31:52;98666.53;;;-8.39;83.27
64078;BME280;51039;49.696;10.808;2022-12-17T00:34:36;98663.25;;;-8.41;82.91
64078;BME280;51039;49.696;10.808;2022-12-17T00:37:20;98666.88;;;-8.45;82.86
64078;BME280;51039;49.696;10.808;2022-12-17T00:40:04;98674.16;;;-8.54;82.66
64078;BME280;51039;49.696;10.808;2022-12-17T00:46:02;98682.75;;;-8.55;83.69
64078;BME280;51039;49.696;10.808;2022-12-17T00:48:46;98680.34;;;-8.58;83.45
64078;BME280;51039;49.696;10.808;2022-12-17T00:51:30;98689.16;;;-8.63;82.98
64078;BME280;51039;49.696;10.808;2022-12-17T00:54:14;98686.16;;;-8.72;83.52
64078;BME280;51039;49.696;10.808;2022-12-17T00:56:58;98695.72;;;-8.75;83.45
64078;BME280;51039;49.696;10.808;2022-12-17T00:59:42;98694.13;;;-8.78;83.50
64078;BME280;51039;49.696;10.808;2022-12-17T01:02:33;98699.41;;;-8.81;83.52
64078;BME280;51039;49.696;10.808;2022-12-17T01:05:17;98691.91;;;-8.85;83.57
64078;BME280;51039;49.696;10.808;2022-12-17T01:08:09;98704.84;;;-8.87;83.78
64078;BME280;51039;49.696;10.808;2022-12-17T01:11:02;98708.31;;;-8.88;84.27
64078;BME280;51039;49.696;10.808;2022-12-17T01:13:48;98716.84;;;-8.88;84.08
64078;BME280;51039;49.696;10.808;2022-12-17T01:16:32;98726.56;;;-8.94;84.54
64078;BME280;51039;49.696;10.808;2022-12-17T01:19:16;98731.63;;;-8.93;84.70
64078;BME280;51039;49.696;10.808;2022-12-17T01:22:00;98736.84;;;-8.94;84.75
64078;BME280;51039;49.696;10.808;2022-12-17T01:24:44;98730.59;;;-9.07;83.99
64078;BME280;51039;49.696;10.808;2022-12-17T01:27:28;98728.03;;;-9.07;84.62
64078;BME280;51039;49.696;10.808;2022-12-17T01:30:12;98744.47;;;-9.12;83.97
64078;BME280;51039;49.696;10.808;2022-12-17T01:33:00;98748.91;;;-9.15;84.17
64078;BME280;51039;49.696;10.808;2022-12-17T01:35:48;98745.78;;;-9.22;84.64
64078;BME280;51039;49.696;10.808;2022-12-17T01:38:32;98751.41;;;-9.33;84.79
64078;BME280;51039;49.696;10.808;2022-12-17T01:41:16;98752.69;;;-9.43;84.54
64078;BME280;51039;49.696;10.808;2022-12-17T01:47:23;98760.31;;;-9.60;82.35
64078;BME280;51039;49.696;10.808;2022-12-17T01:50:09;98753.03;;;-9.70;82.27
64078;BME280;51039;49.696;10.808;2022-12-17T01:52:54;98759.88;;;-9.70;81.99
64078;BME280;51039;49.696;10.808;2022-12-17T01:55:41;98757.84;;;-9.82;81.76
64078;BME280;51039;49.696;10.808;2022-12-17T01:58:26;98764.13;;;-9.90;81.89
64078;BME280;51039;49.696;10.808;2022-12-17T02:01:10;98767.66;;;-9.92;82.11
64078;BME280;51039;49.696;10.808;2022-12-17T02:03:54;98767.66;;;-9.92;81.97
64078;BME280;51039;49.696;10.808;2022-12-17T02:06:39;98773.22;;;-10.03;82.02
64078;BME280;51039;49.696;10.808;2022-12-17T02:09:41;98781.34;;;-10.14;82.71
64078;BME280;51039;49.696;10.808;2022-12-17T02:12:46;98785.88;;;-10.20;82.27
64078;BME280;51039;49.696;10.808;2022-12-17T02:18:36;98789.56;;;-10.28;82.39
64078;BME280;51039;49.696;10.808;2022-12-17T02:21:25;98785.91;;;-10.41;82.08
64078;BME280;51039;49.696;10.808;2022-12-17T02:24:17;98785.03;;;-10.41;82.73
64078;BME280;51039;49.696;10.808;2022-12-17T02:27:11;98787.53;;;-10.40;82.83
64078;BME280;51039;49.696;10.808;2022-12-17T02:29:58;98788.63;;;-10.45;82.65
64078;BME280;51039;49.696;10.808;2022-12-17T02:32:46;98792.88;;;-10.44;82.75
64078;BME280;51039;49.696;10.808;2022-12-17T02:35:33;98799.78;;;-10.47;83.25
64078;BME280;51039;49.696;10.808;2022-12-17T02:38:22;98799.31;;;-10.56;83.51
64078;BME280;51039;49.696;10.808;2022-12-17T02:41:09;98809.66;;;-10.59;84.08
64078;BME280;51039;49.696;10.808;2022-12-17T02:44:00;98806.56;;;-10.68;84.34
64078;BME280;51039;49.696;10.808;2022-12-17T02:46:45;98810.78;;;-10.67;84.70
64078;BME280;51039;49.696;10.808;2022-12-17T02:49:30;98816.47;;;-10.82;85.49
64078;BME280;51039;49.696;10.808;2022-12-17T02:52:15;98821.78;;;-10.87;85.78
64078;BME280;51039;49.696;10.808;2022-12-17T02:55:02;98828.69;;;-10.89;85.85
64078;BME280;51039;49.696;10.808;2022-12-17T02:57:47;98827.63;;;-10.83;85.21
64078;BME280;51039;49.696;10.808;2022-12-17T03:00:31;98827.63;;;-10.83;84.89
64078;BME280;51039;49.696;10.808;2022-12-17T03:03:15;98831.28;;;-10.90;84.85
64078;BME280;51039;49.696;10.808;2022-12-17T03:05:59;98835.28;;;-11.07;85.51
64078;BME280;51039;49.696;10.808;2022-12-17T03:08:42;98836.72;;;-10.99;85.20
64078;BME280;51039;49.696;10.808;2022-12-17T03:11:27;98842.69;;;-10.99;84.30
64078;BME280;51039;49.696;10.808;2022-12-17T03:14:11;98846.72;;;-10.93;84.28
64078;BME280;51039;49.696;10.808;2022-12-17T03:16:55;98851.03;;;-10.94;83.87
64078;BME280;51039;49.696;10.808;2022-12-17T03:19:39;98849.53;;;-10.99;84.25
64078;BME280;51039;49.696;10.808;2022-12-17T03:22:23;98858.09;;;-11.00;84.14
64078;BME280;51039;49.696;10.808;2022-12-17T03:25:07;98861.31;;;-10.95;83.94
64078;BME280;51039;49.696;10.808;2022-12-17T03:27:51;98858.88;;;-10.98;83.93
64078;BME280;51039;49.696;10.808;2022-12-17T03:30:35;98860.66;;;-11.00;83.77
64078;BME280;51039;49.696;10.808;2022-12-17T03:33:19;98866.69;;;-11.03;83.75
64078;BME280;51039;49.696;10.808;2022-12-17T03:36:03;98871.09;;;-11.07;83.91
64078;BME280;51039;49.696;10.808;2022-12-17T03:38:47;98874.78;;;-11.14;83.90
64078;BME280;51039;49.696;10.808;2022-12-17T03:41:31;98872.75;;;-11.29;83.87
64078;BME280;51039;49.696;10.808;2022-12-17T03:44:15;98867.78;;;-11.34;83.89
64078;BME280;51039;49.696;10.808;2022-12-17T03:46:59;98872.13;;;-11.36;83.92
64078;BME280;51039;49.696;10.808;2022-12-17T03:49:43;98869.88;;;-11.45;83.46
64078;BME280;51039;49.696;10.808;2022-12-17T03:52:27;98873.66;;;-11.55;83.19
64078;BME280;51039;49.696;10.808;2022-12-17T03:55:11;98871.09;;;-11.55;83.19
64078;BME280;51039;49.696;10.808;2022-12-17T03:57:55;98877.28;;;-11.62;82.81
64078;BME280;51039;49.696;10.808;2022-12-17T04:00:38;98875.59;;;-11.62;83.87
64078;BME280;51039;49.696;10.808;2022-12-17T04:03:22;98874.91;;;-11.67;83.77
64078;BME280;51039;49.696;10.808;2022-12-17T04:06:06;98874.13;;;-11.69;84.25
64078;BME280;51039;49.696;10.808;2022-12-17T04:08:50;98885.28;;;-11.72;85.03
64078;BME280;51039;49.696;10.808;2022-12-17T04:11:34;98895.75;;;-11.79;85.06
64078;BME280;51039;49.696;10.808;2022-12-17T04:14:18;98900.66;;;-11.73;85.12
64078;BME280;51039;49.696;10.808;2022-12-17T04:17:02;98896.59;;;-11.79;85.26
64078;BME280;51039;49.696;10.808;2022-12-17T04:19:50;98895.84;;;-11.82;85.34
64078;BME280;51039;49.696;10.808;2022-12-17T04:22:34;98896.78;;;-11.85;86.00
64078;BME280;51039;49.696;10.808;2022-12-17T04:25:18;98892.28;;;-11.78;86.23
64078;BME280;51039;49.696;10.808;2022-12-17T04:28:02;98911.78;;;-11.76;86.02
64078;BME280;51039;49.696;10.808;2022-12-17T04:30:46;98909.09;;;-11.71;85.41
64078;BME280;51039;49.696;10.808;2022-12-17T04:33:30;98907.25;;;-11.66;85.30
64078;BME280;51039;49.696;10.808;2022-12-17T04:36:14;98904.56;;;-11.63;85.06
64078;BME280;51039;49.696;10.808;2022-12-17T04:38:58;98916.56;;;-11.65;84.43
64078;BME280;51039;49.696;10.808;2022-12-17T04:41:42;98919.03;;;-11.62;84.71
64078;BME280;51039;49.696;10.808;2022-12-17T04:44:26;98917.50;;;-11.68;83.98
64078;BME280;51039;49.696;10.808;2022-12-17T04:47:09;98931.19;;;-11.70;83.83
64078;BME280;51039;49.696;10.808;2022-12-17T04:49:53;98933.13;;;-11.77;83.15
64078;BME280;51039;49.696;10.808;2022-12-17T04:52:37;98939.28;;;-11.82;83.45
64078;BME280;51039;49.696;10.808;2022-12-17T04:55:21;98934.47;;;-11.92;83.04
64078;BME280;51039;49.696;10.808;2022-12-17T04:58:05;98938.06;;;-11.97;82.87
64078;BME280;51039;49.696;10.808;2022-12-17T05:00:50;98939.88;;;-12.01;82.85
64078;BME280;51039;49.696;10.808;2022-12-17T05:03:36;98933.31;;;-12.08;82.79
64078;BME280;51039;49.696;10.808;2022-12-17T05:06:20;98942.72;;;-12.10;82.61
64078;BME280;51039;49.696;10.808;2022-12-17T05:09:04;98949.72;;;-12.17;81.98
64078;BME280;51039;49.696;10.808;2022-12-17T05:11:48;98953.88;;;-12.14;82.26
64078;BME280;51039;49.696;10.808;2022-12-17T05:14:32;98953.03;;;-12.13;82.38
64078;BME280;51039;49.696;10.808;2022-12-17T05:17:17;98959.91;;;-12.15;82.54
64078;BME280;51039;49.696;10.808;2022-12-17T05:20:01;98968.53;;;-12.19;82.54
64078;BME280;51039;49.696;10.808;2022-12-17T05:22:45;98975.53;;;-12.26;82.39
64078;BME280;51039;49.696;10.808;2022-12-17T05:25:29;98980.59;;;-12.25;82.55
64078;BME280;51039;49.696;10.808;2022-12-17T05:28:13;98980.50;;;-12.21;82.82
64078;BME280;51039;49.696;10.808;2022-12-17T05:30:57;98982.09;;;-12.17;82.76
64078;BME280;51039;49.696;10.808;2022-12-17T05:33:41;98989.59;;;-12.13;82.73
64078;BME280;51039;49.696;10.808;2022-12-17T05:36:25;98995.59;;;-12.14;82.44
64078;BME280;51039;49.696;10.808;2022-12-17T05:39:09;98994.03;;;-12.18;82.47
64078;BME280;51039;49.696;10.808;2022-12-17T05:41:53;98992.31;;;-12.17;82.42
64078;BME280;51039;49.696;10.808;2022-12-17T05:44:37;98994.09;;;-12.21;82.33
64078;BME280;51039;49.696;10.808;2022-12-17T05:47:21;99004.53;;;-12.29;82.21
64078;BME280;51039;49.696;10.808;2022-12-17T05:50:05;99008.63;;;-12.23;82.32
64078;BME280;51039;49.696;10.808;2022-12-17T05:52:48;99000.19;;;-12.25;82.49
64078;BME280;51039;49.696;10.808;2022-12-17T05:55:49;99005.50;;;-12.33;82.32
64078;BME280;51039;49.696;10.808;2022-12-17T05:58:35;99011.44;;;-12.32;82.44
64078;BME280;51039;49.696;10.808;2022-12-17T06:01:19;99016.59;;;-12.34;82.55
64078;BME280;51039;49.696;10.808;2022-12-17T06:04:03;99019.91;;;-12.30;82.55
64078;BME280;51039;49.696;10.808;2022-12-17T06:06:47;99023.50;;;-12.37;82.63
64078;BME280;51039;49.696;10.808;2022-12-17T06:09:30;99024.25;;;-12.34;82.41
64078;BME280;51039;49.696;10.808;2022-12-17T06:12:14;99031.91;;;-12.34;82.71
64078;BME280;51039;49.696;10.808;2022-12-17T06:14:58;99037.91;;;-12.35;83.05
64078;BME280;51039;49.696;10.808;2022-12-17T06:17:50;99030.44;;;-12.41;82.48
64078;BME280;51039;49.696;10.808;2022-12-17T06:20:35;99033.84;;;-12.42;82.77
64078;BME280;51039;49.696;10.808;2022-12-17T06:23:19;99038.94;;;-12.42;82.83
64078;BME280;51039;49.696;10.808;2022-12-17T06:26:02;99047.50;;;-12.43;83.12
64078;BME280;51039;49.696;10.808;2022-12-17T06:28:46;99052.66;;;-12.45;83.16
64078;BME280;51039;49.696;10.808;2022-12-17T06:31:30;99056.88;;;-12.45;83.16
64078;BME280;51039;49.696;10.808;2022-12-17T06:34:14;99061.16;;;-12.46;83.14
64078;BME280;51039;49.696;10.808;2022-12-17T06:36:58;99069.75;;;-12.48;82.76
64078;BME280;51039;49.696;10.808;2022-12-17T06:39:42;99072.34;;;-12.50;82.68
64078;BME280;51039;49.696;10.808;2022-12-17T06:42:26;99074.13;;;-12.53;82.58
64078;BME280;51039;49.696;10.808;2022-12-17T06:45:27;99075.88;;;-12.55;82.21
64078;BME280;51039;49.696;10.808;2022-12-17T06:48:11;99081.09;;;-12.58;82.61
64078;BME280;51039;49.696;10.808;2022-12-17T06:50:55;99079.38;;;-12.58;82.76
64078;BME280;51039;49.696;10.808;2022-12-17T06:53:39;99076.69;;;-12.53;82.87
64078;BME280;51039;49.696;10.808;2022-12-17T06:56:24;99082.59;;;-12.51;82.59
64078;BME280;51039;49.696;10.808;2022-12-17T06:59:08;99087.88;;;-12.59;82.86
64078;BME280;51039;49.696;10.808;2022-12-17T07:01:52;99086.22;;;-12.60;82.80
64078;BME280;51039;49.696;10.808;2022-12-17T07:04:36;99090.56;;;-12.63;82.86
64078;BME280;51039;49.696;10.808;2022-12-17T07:07:20;99101.50;;;-12.58;82.93
64078;BME280;51039;49.696;10.808;2022-12-17T07:10:04;99110.69;;;-12.53;83.08
64078;BME280;51039;49.696;10.808;2022-12-17T07:12:48;99111.66;;;-12.57;82.93
64078;BME280;51039;49.696;10.808;2022-12-17T07:15:32;99132.00;;;-12.54;83.31
64078;BME280;51039;49.696;10.808;2022-12-17T07:18:16;99130.22;;;-12.50;83.89
64078;BME280;51039;49.696;10.808;2022-12-17T07:21:00;99131.38;;;-12.62;84.86
64078;BME280;51039;49.696;10.808;2022-12-17T07:23:44;99126.00;;;-12.53;84.68
64078;BME280;51039;49.696;10.808;2022-12-17T07:26:28;99131.06;;;-12.51;84.00
64078;BME280;51039;49.696;10.808;2022-12-17T07:29:12;99131.25;;;-12.57;83.18
64078;BME280;51039;49.696;10.808;2022-12-17T07:31:56;99140.44;;;-12.52;83.16
64078;BME280;51039;49.696;10.808;2022-12-17T07:34:40;99148.56;;;-12.37;82.87
64078;BME280;51039;49.696;10.808;2022-12-17T07:37:23;99145.91;;;-12.33;82.58
64078;BME280;51039;49.696;10.808;2022-12-17T07:40:08;99153.41;;;-12.27;82.52
64078;BME280;51039;49.696;10.808;2022-12-17T07:42:52;99154.00;;;-12.17;82.30
64078;BME280;51039;49.696;10.808;2022-12-17T07:45:36;99159.78;;;-12.10;82.72
64078;BME280;51039;49.696;10.808;2022-12-17T07:48:20;99162.19;;;-12.04;82.17
64078;BME280;51039;49.696;10.808;2022-12-17T07:51:04;99170.63;;;-12.02;81.64
64078;BME280;51039;49.696;10.808;2022-12-17T07:53:48;99172.16;;;-11.95;81.92
64078;BME280;51039;49.696;10.808;2022-12-17T07:56:32;99175.94;;;-11.80;81.56
64078;BME280;51039;49.696;10.808;2022-12-17T07:59:16;99175.03;;;-11.77;81.17
64078;BME280;51039;49.696;10.808;2022-12-17T08:01:59;99169.38;;;-11.59;81.27
64078;BME280;51039;49.696;10.808;2022-12-17T08:04:43;99178.16;;;-11.38;81.44
64078;BME280;51039;49.696;10.808;2022-12-17T08:07:27;99183.00;;;-11.29;80.73
64078;BME280;51039;49.696;10.808;2022-12-17T08:10:11;99184.31;;;-11.15;80.56
64078;BME280;51039;49.696;10.808;2022-12-17T08:12:56;99189.91;;;-11.02;80.15
64078;BME280;51039;49.696;10.808;2022-12-17T08:15:42;99196.66;;;-11.01;79.41
64078;BME280;51039;49.696;10.808;2022-12-17T08:18:27;99201.44;;;-10.89;78.99
64078;BME280;51039;49.696;10.808;2022-12-17T08:21:11;99206.94;;;-10.75;78.84
64078;BME280;51039;49.696;10.808;2022-12-17T08:23:54;99207.81;;;-10.49;78.28
64078;BME280;51039;49.696;10.808;2022-12-17T08:26:38;99210.72;;;-10.08;77.02
64078;BME280;51039;49.696;10.808;2022-12-17T08:29:22;99213.81;;;-9.75;76.46
64078;BME280;51039;49.696;10.808;2022-12-17T08:32:06;99214.78;;;-9.54;75.38
64078;BME280;51039;49.696;10.808;2022-12-17T08:34:50;99221.59;;;-9.29;75.43
64078;BME280;51039;49.696;10.808;2022-12-17T08:37:34;99216.31;;;-9.26;75.56
64078;BME280;51039;49.696;10.808;2022-12-17T08:40:18;99219.00;;;-8.61;85.72
64078;BME280;51039;49.696;10.808;2022-12-17T08:43:02;99226.00;;;-7.83;84.75
64078;BME280;51039;49.696;10.808;2022-12-17T08:45:46;99224.41;;;-7.46;79.42
64078;BME280;51039;49.696;10.808;2022-12-17T08:48:31;99225.88;;;-7.40;75.36
64078;BME280;51039;49.696;10.808;2022-12-17T08:51:15;99220.63;;;-7.01;72.97
64078;BME280;51039;49.696;10.808;2022-12-17T08:53:59;99224.09;;;-7.98;68.76
64078;BME280;51039;49.696;10.808;2022-12-17T08:56:43;99220.31;;;-7.31;71.34
64078;BME280;51039;49.696;10.808;2022-12-17T08:59:27;99228.88;;;-6.56;69.06
64078;BME280;51039;49.696;10.808;2022-12-17T09:02:11;99234.41;;;-6.64;68.30
64078;BME280;51039;49.696;10.808;2022-12-17T09:04:55;99236.88;;;-7.18;66.35
64078;BME280;51039;49.696;10.808;2022-12-17T09:07:39;99245.91;;;-6.71;67.13
64078;BME280;51039;49.696;10.808;2022-12-17T09:10:23;99249.88;;;-6.64;66.95
64078;BME280;51039;49.696;10.808;2022-12-17T09:13:07;99247.34;;;-6.65;67.25
64078;BME280;51039;49.696;10.808;2022-12-17T09:15:54;99252.00;;;-6.37;67.00
64078;BME280;51039;49.696;10.808;2022-12-17T09:18:38;99261.28;;;-6.33;66.13
64078;BME280;51039;49.696;10.808;2022-12-17T09:21:22;99264.25;;;-6.60;67.14
64078;BME280;51039;49.696;10.808;2022-12-17T09:24:06;99256.34;;;-6.74;68.14
64078;BME280;51039;49.696;10.808;2022-12-17T09:26:52;99263.81;;;-6.51;68.11
64078;BME280;51039;49.696;10.808;2022-12-17T09:29:36;99278.44;;;-6.51;68.50
64078;BME280;51039;49.696;10.808;2022-12-17T09:32:20;99270.19;;;-6.04;67.22
64078;BME280;51039;49.696;10.808;2022-12-17T09:35:04;99274.72;;;-6.09;66.66
64078;BME280;51039;49.696;10.808;2022-12-17T09:37:52;99272.28;;;-5.95;66.64
64078;BME280;51039;49.696;10.808;2022-12-17T09:40:37;99272.78;;;-5.88;67.12
64078;BME280;51039;49.696;10.808;2022-12-17T09:43:30;99277.41;;;-5.60;66.48
64078;BME280;51039;49.696;10.808;2022-12-17T09:52:02;99277.78;;;-5.67;66.48
64078;BME280;51039;49.696;10.808;2022-12-17T09:54:57;99283.88;;;-5.35;66.49
64078;BME280;51039;49.696;10.808;2022-12-17T09:57:41;99289.97;;;-5.36;65.86
64078;BME280;51039;49.696;10.808;2022-12-17T10:00:26;99280.50;;;-5.20;65.72
64078;BME280;51039;49.696;10.808;2022-12-17T10:03:12;99272.78;;;-5.04;65.54
64078;BME280;51039;49.696;10.808;2022-12-17T10:06:01;99269.19;;;-5.01;65.53
64078;BME280;51039;49.696;10.808;2022-12-17T10:08:55;99265.94;;;-4.89;66.52
64078;BME280;51039;49.696;10.808;2022-12-17T10:11:42;99276.06;;;-4.84;66.49
64078;BME280;51039;49.696;10.808;2022-12-17T10:14:26;99274.88;;;-4.79;65.92
64078;BME280;51039;49.696;10.808;2022-12-17T10:17:17;99281.91;;;-5.14;67.32
64078;BME280;51039;49.696;10.808;2022-12-17T10:20:22;99277.72;;;-4.67;67.20
64078;BME280;51039;49.696;10.808;2022-12-17T10:23:20;99275.78;;;-4.80;67.60
64078;BME280;51039;49.696;10.808;2022-12-17T10:26:34;99278.19;;;-5.08;69.02
64078;BME280;51039;49.696;10.808;2022-12-17T10:29:21;99277.88;;;-4.86;68.17
64078;BME280;51039;49.696;10.808;2022-12-17T10:32:08;99282.66;;;-4.79;67.74
64078;BME280;51039;49.696;10.808;2022-12-17T10:34:59;99287.53;;;-5.06;68.45
64078;BME280;51039;49.696;10.808;2022-12-17T10:37:58;99282.22;;;-4.71;68.69
64078;BME280;51039;49.696;10.808;2022-12-17T10:40:42;99294.25;;;-4.54;68.55
64078;BME280;51039;49.696;10.808;2022-12-17T10:43:28;99300.78;;;-4.48;68.36
64078;BME280;51039;49.696;10.808;2022-12-17T10:46:23;99297.78;;;-4.41;69.25
64078;BME280;51039;49.696;10.808;2022-12-17T10:49:19;99293.81;;;-4.00;67.94
64078;BME280;51039;49.696;10.808;2022-12-17T10:54:59;99290.00;;;-3.64;66.35
64078;BME280;51039;49.696;10.808;2022-12-17T10:57:46;99288.50;;;-3.83;66.50
64078;BME280;51039;49.696;10.808;2022-12-17T11:00:33;99287.28;;;-4.38;68.07
64078;BME280;51039;49.696;10.808;2022-12-17T11:06:26;99293.03;;;-4.32;67.80
64078;BME280;51039;49.696;10.808;2022-12-17T11:09:15;99289.28;;;-3.97;66.92
64078;BME280;51039;49.696;10.808;2022-12-17T11:12:07;99301.19;;;-3.64;66.13
64078;BME280;51039;49.696;10.808;2022-12-17T11:14:55;99290.97;;;-3.51;66.07
64078;BME280;51039;49.696;10.808;2022-12-17T11:17:41;99288.72;;;-4.02;67.61
64078;BME280;51039;49.696;10.808;2022-12-17T11:20:39;99294.06;;;-3.75;67.28
64078;BME280;51039;49.696;10.808;2022-12-17T11:23:46;99300.66;;;-3.69;67.39
64078;BME280;51039;49.696;10.808;2022-12-17T11:26:33;99289.63;;;-3.72;66.88
64078;BME280;51039;49.696;10.808;2022-12-17T11:29:20;99295.97;;;-3.92;67.46
64078;BME280;51039;49.696;10.808;2022-12-17T11:38:37;99287.28;;;-3.91;67.25
64078;BME280;51039;49.696;10.808;2022-12-17T11:44:31;99293.25;;;-3.61;66.84
64078;BME280;51039;49.696;10.808;2022-12-17T11:47:35;99286.88;;;-3.55;66.29
64078;BME280;51039;49.696;10.808;2022-12-17T11:50:37;99285.97;;;-3.54;66.57
64078;BME280;51039;49.696;10.808;2022-12-17T11:53:40;99284.31;;;-3.41;66.72
64078;BME280;51039;49.696;10.808;2022-12-17T11:56:40;99293.28;;;-3.46;66.87
64078;BME280;51039;49.696;10.808;2022-12-17T11:59:33;99283.94;;;-3.63;67.56
64078;BME280;51039;49.696;10.808;2022-12-17T12:02:38;99281.28;;;-3.92;68.81
64078;BME280;51039;49.696;10.808;2022-12-17T12:08:32;99292.31;;;-3.74;68.52
64078;BME280;51039;49.696;10.808;2022-12-17T12:11:36;99297.16;;;-3.53;67.94
64078;BME280;51039;49.696;10.808;2022-12-17T12:14:34;99287.38;;;-3.34;67.29
64078;BME280;51039;49.696;10.808;2022-12-17T12:17:37;99299.56;;;-3.22;67.54
64078;BME280;51039;49.696;10.808;2022-12-17T12:20:33;99291.53;;;-3.46;67.70
64078;BME280;51039;49.696;10.808;2022-12-17T12:26:41;99297.91;;;-3.37;68.28
64078;BME280;51039;49.696;10.808;2022-12-17T12:29:38;99297.53;;;-3.45;68.48
64078;BME280;51039;49.696;10.808;2022-12-17T12:32:49;99304.09;;;-3.25;67.76
64078;BME280;51039;49.696;10.808;2022-12-17T12:35:36;99295.31;;;-3.37;68.01
64078;BME280;51039;49.696;10.808;2022-12-17T12:38:22;99295.44;;;-3.39;68.05
64078;BME280;51039;49.696;10.808;2022-12-17T12:41:13;99297.69;;;-3.63;68.62
64078;BME280;51039;49.696;10.808;2022-12-17T12:44:06;99300.94;;;-3.59;68.80
64078;BME280;51039;49.696;10.808;2022-12-17T12:47:12;99302.44;;;-3.41;68.53
64078;BME280;51039;49.696;10.808;2022-12-17T12:50:11;99307.44;;;-3.52;68.72
64078;BME280;51039;49.696;10.808;2022-12-17T12:53:17;99299.53;;;-3.65;69.94
64078;BME280;51039;49.696;10.808;2022-12-17T12:56:02;99306.63;;;-3.83;70.10
64078;BME280;51039;49.696;10.808;2022-12-17T12:58:46;99302.41;;;-4.00;70.80
64078;BME280;51039;49.696;10.808;2022-12-17T13:01:31;99309.84;;;-3.79;70.80
64078;BME280;51039;49.696;10.808;2022-12-17T13:07:26;99304.88;;;-3.68;70.44
64078;BME280;51039;49.696;10.808;2022-12-17T13:09:54;99304.22;;;-3.71;70.29
64078;BME280;51039;49.696;10.808;2022-12-17T13:12:32;99308.72;;;-3.59;70.09
64078;BME280;51039;49.696;10.808;2022-12-17T13:15:14;99304.34;;;-3.59;70.26
64078;BME280;51039;49.696;10.808;2022-12-17T13:18:05;99309.09;;;-3.51;70.20
64078;BME280;51039;49.696;10.808;2022-12-17T13:20:38;99304.84;;;-3.38;70.22
64078;BME280;51039;49.696;10.808;2022-12-17T13:23:12;99307.91;;;-3.45;70.24
64078;BME280;51039;49.696;10.808;2022-12-17T13:25:40;99305.47;;;-3.48;70.77
64078;BME280;51039;49.696;10.808;2022-12-17T13:28:25;99313.66;;;-3.40;70.55
64078;BME280;51039;49.696;10.808;2022-12-17T13:31:03;99319.44;;;-3.51;71.08
64078;BME280;51039;49.696;10.808;2022-12-17T13:33:42;99316.78;;;-3.49;70.95
64078;BME280;51039;49.696;10.808;2022-12-17T13:36:38;99322.91;;;-3.36;71.14
64078;BME280;51039;49.696;10.808;2022-12-17T13:39:20;99325.28;;;-3.33;70.73
64078;BME280;51039;49.696;10.808;2022-12-17T13:44:54;99323.81;;;-3.37;71.05
64078;BME280;51039;49.696;10.808;2022-12-17T13:47:22;99325.41;;;-3.34;71.03
64078;BME280;51039;49.696;10.808;2022-12-17T13:49:53;99334.91;;;-3.49;71.39
64078;BME280;51039;49.696;10.808;2022-12-17T13:52:22;99330.84;;;-3.53;71.77
64078;BME280;51039;49.696;10.808;2022-12-17T13:54:49;99330.41;;;-3.76;72.62
64078;BME280;51039;49.696;10.808;2022-12-17T13:57:20;99332.09;;;-3.61;72.17
64078;BME280;51039;49.696;10.808;2022-12-17T13:59:52;99343.41;;;-3.62;72.29
64078;BME280;51039;49.696;10.808;2022-12-17T14:02:23;99342.00;;;-3.67;72.17
64078;BME280;51039;49.696;10.808;2022-12-17T14:04:51;99347.03;;;-3.80;72.63
64078;BME280;51039;49.696;10.808;2022-12-17T14:07:17;99348.88;;;-3.82;72.87
64078;BME280;51039;49.696;10.808;2022-12-17T14:09:43;99355.91;;;-3.84;72.49
64078;BME280;51039;49.696;10.808;2022-12-17T14:12:11;99359.59;;;-3.88;72.89
64078;BME280;51039;49.696;10.808;2022-12-17T14:14:58;99367.50;;;-3.91;73.13
64078;BME280;51039;49.696;10.808;2022-12-17T14:17:28;99374.69;;;-3.97;72.80
64078;BME280;51039;49.696;10.808;2022-12-17T14:22:37;99377.78;;;-4.22;74.42
64078;BME280;51039;49.696;10.808;2022-12-17T14:25:14;99382.47;;;-4.28;74.78
64078;BME280;51039;49.696;10.808;2022-12-17T14:27:48;99381.06;;;-4.34;74.55
64078;BME280;51039;49.696;10.808;2022-12-17T14:32:48;99376.16;;;-4.39;74.88
64078;BME280;51039;49.696;10.808;2022-12-17T14:35:23;99377.97;;;-4.41;75.20
64078;BME280;51039;49.696;10.808;2022-12-17T14:37:53;99382.72;;;-4.49;75.73
64078;BME280;51039;49.696;10.808;2022-12-17T14:40:19;99378.38;;;-4.48;75.74
64078;BME280;51039;49.696;10.808;2022-12-17T14:42:46;99374.28;;;-4.53;75.40
64078;BME280;51039;49.696;10.808;2022-12-17T14:47:50;99370.44;;;-4.61;76.56
64078;BME280;51039;49.696;10.808;2022-12-17T14:52:47;99372.91;;;-4.76;76.73
64078;BME280;51039;49.696;10.808;2022-12-17T14:55:28;99378.41;;;-4.82;76.95
64078;BME280;51039;49.696;10.808;2022-12-17T14:58:06;99384.81;;;-4.89;77.83
64078;BME280;51039;49.696;10.808;2022-12-17T15:03:41;99385.84;;;-5.09;78.25
64078;BME280;51039;49.696;10.808;2022-12-17T15:06:11;99391.56;;;-5.20;77.58
64078;BME280;51039;49.696;10.808;2022-12-17T15:08:42;99389.75;;;-5.35;77.47
64078;BME280;51039;49.696;10.808;2022-12-17T15:11:13;99403.13;;;-5.44;78.75
64078;BME280;51039;49.696;10.808;2022-12-17T15:13:40;99394.00;;;-5.52;78.76